Latest Weather Observations for Mildura

IDN60801

Issued at 3:03 am EDT Saturday 21 January 2017 (issued every 30 minutes, with the page automatically refreshed every 10 minutes)

About weather observations | Map of weather stations | Latest weather observations for NSW | Other Formats
Station Details ID: 076031 Name: MILDURA AIRPORT Lat: -34.24 Lon: 142.09 Height: 50.0 m
Data from the previous 72 hours. | See also: Recent months at Mildura
Date/Time
EDT
Temp
°C
App
Temp
°C
Dew
Point
°C
Rel
Hum
%
Delta-T
°C
Wind Press
QNH
hPa
Press
MSL
hPa
Rain since
9am
mm
Dir  Spd
km/h
Gust
km/h
Spd
kts
Gust
kts
21/03:00am 16.3 14.4 10.4 68 3.1 S 11 17 6 9 1010.8 1010.6 0.0
21/02:30am 16.6 15.2 10.9 69 3.1 S 9 13 5 7 1010.5 1010.3 0.2
21/02:00am 17.5 15.2 10.6 64 3.7 SSE 13 19 7 10 1010.5 1010.3 0.2
21/01:30am 17.9 16.1 11.0 64 3.7 SSE 11 17 6 9 1010.4 1010.2 0.2
21/01:00am 18.6 16.4 10.9 61 4.2 SSE 13 19 7 10 1010.2 1010.0 0.2
21/12:30am 19.1 17.1 11.4 61 4.2 SSE 13 19 7 10 1010.0 1009.8 0.2
21/12:00am 19.4 18.2 11.7 61 4.3 S 9 13 5 7 1009.6 1009.4 0.2
 
Date/Time
EDT
Temp
°C
App
Temp
°C
Dew
Point
°C
Rel
Hum
%
Delta-T
°C
Wind Press
QNH
hPa
Press
MSL
hPa
Rain since
9am
mm
Dir  Spd
km/h
Gust
km/h
Spd
kts
Gust
kts
20/11:30pm 20.2 18.6 11.4 57 4.9 S 11 15 6 8 1009.3 1009.1 0.2
20/11:00pm 20.8 19.2 11.4 55 5.2 S 11 15 6 8 1009.0 1008.8 0.2
20/10:30pm 21.3 20.0 11.3 53 5.5 S 9 15 5 8 1008.5 1008.3 0.2
20/10:00pm 22.0 20.2 10.8 49 6.2 S 11 17 6 9 1007.9 1007.7 0.2
20/09:30pm 22.8 20.2 10.6 46 6.7 S 15 24 8 13 1007.3 1007.1 0.2
20/09:00pm 23.3 21.0 10.4 44 7.1 S 13 22 7 12 1006.9 1006.7 0.2
20/08:30pm 24.0 20.5 10.3 42 7.6 SSW 19 28 10 15 1006.4 1006.2 0.2
20/08:00pm 24.8 21.3 10.3 40 8.1 SSW 19 32 10 17 1005.9 1005.6 0.2
20/07:30pm 25.2 21.2 10.3 39 8.3 S 22 35 12 19 1005.6 1005.3 0.2
20/07:00pm 25.3 21.7 10.0 38 8.5 S 19 30 10 16 1005.3 1005.0 0.2
20/06:30pm 25.8 22.4 11.2 40 8.3 S 20 32 11 17 1004.9 1004.6 0.2
20/06:00pm 26.0 22.3 11.4 40 8.3 SSW 22 35 12 19 1004.7 1004.4 0.2
20/05:30pm 25.5 22.4 11.7 42 7.9 SSW 19 32 10 17 1004.7 1004.4 0.2
20/05:00pm 25.8 23.8 12.6 44 7.7 SSW 15 30 8 16 1004.5 1004.2 0.2
20/04:30pm 24.5 21.4 12.1 46 7.1 SSW 20 33 11 18 1004.7 1004.4 0.2
20/04:00pm 24.0 21.1 12.3 48 6.7 SW 19 32 10 17 1004.5 1004.2 0.2
20/03:30pm 23.9 21.0 12.8 49 6.4 SSW 20 35 11 19 1004.7 1004.4 0.2
20/03:00pm 23.5 19.7 12.5 50 6.3 SW 24 39 13 21 1004.6 1004.3 0.2
20/02:30pm 23.8 21.3 14.2 55 5.7 SW 20 33 11 18 1004.6 1004.3 0.2
20/02:00pm 23.5 20.0 14.5 57 5.3 SW 26 39 14 21 1004.5 1004.2 0.2
20/01:30pm 22.0 19.2 14.4 62 4.5 SW 22 39 12 21 1004.4 1004.1 0.2
20/01:00pm 21.8 18.5 14.9 65 4.1 SSW 26 39 14 21 1004.0 1003.7 0.2
20/12:30pm 21.5 18.5 14.9 66 3.9 SW 24 37 13 20 1003.6 1003.3 0.2
20/12:00pm 22.3 19.1 15.2 64 4.2 SW 26 46 14 25 1003.2 1002.9 0.2
20/11:34am 21.7 18.5 16.4 72 3.2 SW 28 50 15 27 1002.4 1002.1 0.2
20/11:30am 21.8 20.0 17.0 74 2.9 SW 22 37 12 20 1002.4 1002.1 0.2
20/11:00am 21.7 18.8 17.1 75 2.8 SW 28 43 15 23 1001.7 1001.4 0.2
20/10:30am 21.7 19.4 17.5 77 2.6 SW 26 37 14 20 1001.1 1000.8 0.2
20/10:00am 21.8 20.2 18.4 81 2.1 SW 24 35 13 19 1000.4 1000.1 0.2
20/09:33am 21.8 21.1 19.4 86 1.5 SW 22 39 12 21 1000.1 999.8 0.2
20/09:30am 21.8 21.1 19.4 86 1.5 SW 22 39 12 21 1000.0 999.7 0.2
20/09:27am 21.8 20.6 19.2 85 1.7 SW 24 39 13 21 999.9 999.6 0.2
20/09:14am 21.5 20.6 19.8 90 1.1 SW 24 39 13 21 999.7 999.4 0.2
20/09:00am 22.5 21.8 21.0 91 1.0 WSW 26 41 14 22 999.1 998.8 16.4
20/08:53am 22.7 22.1 21.2 91 1.0 WSW 26 41 14 22 999.0 998.7 16.4
20/08:33am 23.5 24.7 23.2 98 0.2 W 22 50 12 27 998.4 998.1 16.2
20/08:31am 24.2 26.2 24.0 99 0.1 WNW 20 30 11 16 998.1 997.8 15.8
20/08:30am 24.2 26.2 24.0 99 0.1 WNW 20 28 11 15 998.0 997.7 15.4
20/08:27am 24.3 26.6 24.1 99 0.1 WNW 19 28 10 15 998.0 997.7 15.4
20/08:00am 23.9 26.8 23.9 100 0.0 W 15 22 8 12 998.0 997.7 15.0
20/07:47am 23.7 26.5 23.7 100 0.0 W 15 22 8 12 998.0 997.7 14.6
20/07:30am 23.6 26.3 23.4 99 0.1 W 15 24 8 13 997.9 997.6 14.0
20/07:00am 24.1 27.0 23.1 94 0.7 NW 13 20 7 11 997.4 997.1 2.0
20/06:51am 24.6 26.5 22.8 90 1.2 NW 17 26 9 14 997.0 996.8 1.0
20/06:30am 25.7 28.4 22.8 84 2.0 NNW 13 22 7 12 996.8 996.6 0.2
20/06:00am 25.3 29.1 22.8 86 1.7 NNW 7 13 4 7 997.3 997.0 0.2
20/05:30am 25.6 28.5 22.5 83 2.1 NW 11 17 6 9 997.7 997.4 0.2
20/05:00am 25.4 28.3 22.5 84 2.0 WNW 11 17 6 9 998.0 997.7 0.2
20/04:30am 25.2 28.0 22.3 84 1.9 NW 11 15 6 8 997.5 997.2 0.2
20/04:00am 24.8 28.4 22.1 85 1.8 NW 6 11 3 6 997.0 996.8 0.2
20/03:30am 24.8 27.3 21.7 83 2.1 W 11 19 6 10 997.7 997.4 0.2
20/03:00am 25.1 27.7 21.2 79 2.6 SW 9 13 5 7 997.6 997.3 0.2
20/02:30am 25.4 28.2 20.9 76 3.0 NW 7 11 4 6 996.8 996.6 0.2
20/02:00am 27.3 28.4 21.3 69 4.0 WNW 17 24 9 13 998.1 997.8 0.2
20/01:30am 26.5 27.8 21.7 75 3.2 N 17 20 9 11 997.6 997.3 0.2
20/01:00am 30.1 29.5 18.8 50 7.4 N 20 32 11 17 998.4 998.1 0.0
20/12:30am 30.5 28.6 18.6 49 7.7 N 26 39 14 21 998.6 998.3 0.0
20/12:06am 31.5 27.8 17.0 41 9.2 N 32 50 17 27 998.8 998.5 0.0
20/12:00am 32.0 27.7 15.9 38 10.1 N 33 48 18 26 998.8 998.5 0.0
 
Date/Time
EDT
Temp
°C
App
Temp
°C
Dew
Point
°C
Rel
Hum
%
Delta-T
°C
Wind Press
QNH
hPa
Press
MSL
hPa
Rain since
9am
mm
Dir  Spd
km/h
Gust
km/h
Spd
kts
Gust
kts
19/11:53pm 33.0 28.7 12.1 28 12.4 N 26 44 14 24 998.7 998.4 0.0
19/11:30pm 31.5 28.0 10.2 27 12.2 NNE 19 24 10 13 998.5 998.2 0.0
19/11:00pm 29.6 27.9 9.7 29 11.3 ENE 9 13 5 7 998.4 998.1 0.0
19/10:30pm 30.2 27.5 9.1 27 11.8 E 13 15 7 8 998.7 998.4 0.0
19/10:00pm 30.7 28.6 9.6 27 12.0 E 11 19 6 10 999.0 998.7 0.0
19/09:30pm 30.1 28.6 10.6 30 11.2 SE 9 13 5 7 999.5 999.2 0.0
19/09:00pm 31.3 29.3 10.1 27 12.2 SE 11 17 6 9 1000.1 999.8 0.0
19/08:30pm 32.5 30.2 10.5 26 12.7 SE 13 15 7 8 1000.2 999.9 0.0
19/08:00pm 34.1 31.3 10.0 23 14.0 SE 15 19 8 10 1000.6 1000.3 0.0
19/07:30pm 34.6 32.5 9.8 22 14.3 SE 11 15 6 8 1001.1 1000.8 0.0
19/07:00pm 35.0 32.4 9.4 21 14.8 SE 13 17 7 9 1001.3 1001.0 0.0
19/06:30pm 35.3 33.2 8.2 19 15.3 ESE 9 15 5 8 1001.5 1001.2 0.0
19/06:00pm 35.7 33.5 9.3 20 15.2 SSE 11 17 6 9 1002.0 1001.7 0.0
19/05:30pm 35.7 33.7 8.5 19 15.4 SE 9 17 5 9 1002.8 1002.5 0.0
19/05:00pm 35.3 32.4 8.2 19 15.3 ESE 13 19 7 10 1003.5 1003.2 0.0
19/04:30pm 35.3 33.2 8.2 19 15.3 E 9 15 5 8 1004.1 1003.8 0.0
19/04:00pm 34.3 32.4 7.4 19 15.0 S 7 15 4 8 1005.0 1004.7 0.0
19/03:30pm 33.9 31.1 7.0 19 14.8 ESE 11 17 6 9 1005.7 1005.4 0.0
19/03:00pm 33.9 31.1 7.0 19 14.8 ENE 11 17 6 9 1006.4 1006.2 0.0
19/02:30pm 32.6 30.3 7.4 21 13.9 ESE 9 19 5 10 1007.1 1006.9 0.0
19/02:00pm 31.1 28.1 6.2 21 13.4 E 11 19 6 10 1007.6 1007.4 0.0
19/01:30pm 30.9 27.9 6.0 21 13.3 E 11 19 6 10 1008.3 1008.1 0.0
19/01:00pm 30.0 26.6 6.0 22 12.7 SE 13 20 7 11 1008.9 1008.7 0.0
19/12:30pm 29.3 25.9 6.0 23 12.3 ESE 13 20 7 11 1009.3 1009.1 0.0
19/12:00pm 28.2 24.4 5.7 24 11.8 ESE 15 22 8 12 1009.9 1009.7 0.0
19/11:30am 26.8 23.2 5.1 25 11.1 E 13 20 7 11 1010.4 1010.2 0.0
19/11:00am 25.8 22.1 4.3 25 10.8 E 13 22 7 12 1010.7 1010.5 0.0
19/10:30am 24.5 20.4 4.3 27 10.0 E 15 20 8 11 1011.0 1010.8 0.0
19/10:00am 23.3 19.7 5.2 31 9.1 ESE 13 20 7 11 1011.4 1011.2 0.0
19/09:30am 22.1 18.0 4.2 31 8.7 E 15 22 8 12 1011.6 1011.4 0.0
19/09:00am 20.5 16.4 4.5 35 7.8 ESE 15 19 8 10 1011.8 1011.6 0.0
19/08:30am 19.2 14.3 4.9 39 6.9 SE 20 26 11 14 1011.3 1011.1 0.0
19/08:00am 18.6 14.1 4.4 39 6.8 SE 17 24 9 13 1011.5 1011.3 0.0
19/07:30am 17.8 14.5 4.4 41 6.4 SE 11 17 6 9 1011.5 1011.3 0.0
19/07:00am 17.1 13.7 3.8 41 6.2 SE 11 17 6 9 1011.2 1011.0 0.0
19/06:30am 17.4 13.9 3.3 39 6.5 SE 11 15 6 8 1011.1 1010.9 0.0
19/06:00am 17.9 13.9 3.0 37 6.9 SE 13 19 7 10 1010.9 1010.7 0.0
19/05:30am 18.2 15.0 2.9 36 7.1 SE 9 13 5 7 1010.8 1010.6 0.0
19/05:00am 19.1 14.5 3.7 36 7.3 SE 17 24 9 13 1010.4 1010.2 0.0
19/04:30am 19.5 16.2 6.6 43 6.5 SE 13 20 7 11 1010.4 1010.2 0.0
19/04:00am 19.8 16.2 6.9 43 6.5 SE 15 20 8 11 1010.3 1010.1 0.0
19/03:30am 19.8 16.3 5.5 39 7.0 SSE 13 17 7 9 1010.6 1010.4 0.0
19/03:00am 20.6 16.9 4.6 35 7.8 SSE 13 20 7 11 1010.7 1010.5 0.0
19/02:30am 20.9 16.9 4.9 35 7.9 SSE 15 22 8 12 1011.2 1011.0 0.0
19/02:00am 20.5 18.1 6.8 41 7.0 S 9 11 5 6 1011.6 1011.4 0.0
19/01:30am 20.0 18.1 7.4 44 6.5 SSW 7 11 4 6 1011.9 1011.7 0.0
19/01:00am 20.3 18.3 7.3 43 6.7 S 7 9 4 5 1011.9 1011.7 0.0
19/12:30am 20.7 18.9 7.3 42 6.9 S 6 7 3 4 1012.1 1011.9 0.0
19/12:00am 22.0 19.5 6.7 37 7.8 SSE 9 9 5 5 1012.2 1012.0 0.0
 
Date/Time
EDT
Temp
°C
App
Temp
°C
Dew
Point
°C
Rel
Hum
%
Delta-T
°C
Wind Press
QNH
hPa
Press
MSL
hPa
Rain since
9am
mm
Dir  Spd
km/h
Gust
km/h
Spd
kts
Gust
kts
18/11:30pm 22.0 19.9 6.7 37 7.8 SSE 7 9 4 5 1012.3 1012.1 0.0
18/11:00pm 22.5 20.4 6.7 36 8.1 SE 7 11 4 6 1012.5 1012.3 0.0
18/10:30pm 23.4 20.4 6.2 33 8.8 SSE 11 15 6 8 1012.4 1012.2 0.0
18/10:00pm 23.9 20.9 6.2 32 9.1 S 11 13 6 7 1012.4 1012.2 0.0
18/09:30pm 24.5 21.5 5.8 30 9.6 SE 11 13 6 7 1012.0 1011.8 0.0
18/09:00pm 25.3 22.2 5.5 28 10.1 ESE 11 13 6 7 1012.0 1011.8 0.0
18/08:30pm 26.5 22.3 5.5 26 10.8 SE 17 26 9 14 1011.6 1011.4 0.0
18/08:00pm 27.7 22.0 4.7 23 11.8 SE 24 33 13 18 1011.4 1011.2 0.0
18/07:30pm 28.8 23.0 4.3 21 12.5 SE 24 37 13 20 1011.2 1011.0 0.0
18/07:00pm 29.1 24.1 6.5 24 12.0 SSE 22 35 12 19 1010.8 1010.6 0.0
18/06:30pm 30.4 25.7 7.6 24 12.4 SE 22 35 12 19 1010.6 1010.4 0.0
18/06:00pm 30.4 24.9 7.6 24 12.5 SE 26 39 14 21 1010.5 1010.3 0.0
18/05:30pm 31.1 27.0 8.8 25 12.5 S 20 30 11 16 1010.6 1010.4 0.0
18/05:00pm 31.5 27.7 9.1 25 12.6 S 19 32 10 17 1010.7 1010.5 0.0
18/04:30pm 31.8 28.4 10.5 27 12.3 S 19 30 10 16 1010.8 1010.6 0.0
18/04:00pm 32.0 28.8 10.1 26 12.5 S 17 32 9 17 1010.8 1010.6 0.0
18/03:30pm 32.4 29.3 11.6 28 12.2 S 19 30 10 16 1011.0 1010.8 0.0
18/03:00pm 31.5 28.5 10.8 28 12.0 SSE 17 28 9 15 1011.3 1011.1 0.0
18/02:30pm 31.7 28.6 11.5 29 11.8 SSE 19 28 10 15 1011.6 1011.4 0.0
18/02:00pm 30.9 28.0 12.3 32 11.0 S 19 28 10 15 1012.0 1011.8 0.0
18/01:30pm 30.2 27.5 13.0 34 10.2 S 19 28 10 15 1012.4 1012.2 0.0
18/01:00pm 28.8 25.8 11.8 35 9.9 SSE 19 32 10 17 1013.0 1012.8 0.0
18/12:30pm 28.1 24.8 11.6 36 9.5 SSE 20 37 11 20 1013.3 1013.1 0.0
18/12:00pm 28.0 24.4 12.0 37 9.3 SSE 22 33 12 18 1013.5 1013.3 0.0
18/11:30am 26.8 23.7 11.7 39 8.7 S 19 32 10 17 1013.7 1013.5 0.0
18/11:00am 26.0 22.8 11.4 40 8.3 S 19 30 10 16 1013.7 1013.5 0.0
18/10:30am 26.2 22.9 11.5 40 8.4 SSW 20 32 11 17 1013.5 1013.3 0.0
18/10:00am 25.9 22.6 10.9 39 8.5 SSW 19 30 10 16 1013.5 1013.3 0.0
18/09:30am 25.1 22.9 10.9 41 8.0 S 13 22 7 12 1013.0 1012.8 0.0
18/09:00am 24.4 22.4 10.3 41 7.8 S 11 19 6 10 1012.7 1012.5 0.0
18/08:30am 23.7 22.0 11.1 45 7.0 SSW 11 17 6 9 1012.5 1012.3 0.0
18/08:00am 22.4 20.1 10.5 47 6.5 SSW 13 19 7 10 1011.6 1011.4 0.0
18/07:30am 21.2 19.7 10.7 51 5.8 SSW 9 13 5 7 1011.0 1010.8 0.0
18/07:00am 20.8 19.3 10.6 52 5.6 S 9 13 5 7 1010.0 1009.8 0.0
18/06:30am 20.4 18.8 10.2 52 5.5 S 9 11 5 6 1009.6 1009.4 0.0
18/06:00am 21.2 19.6 10.1 49 6.0 SSE 9 13 5 7 1009.4 1009.2 0.0
18/05:30am 21.9 19.9 10.1 47 6.4 S 11 17 6 9 1009.1 1008.9 0.0
18/05:00am 22.7 19.6 10.2 45 6.9 SSE 17 22 9 12 1008.8 1008.6 0.0
18/04:30am 23.3 20.1 10.0 43 7.3 SSE 17 30 9 16 1008.3 1008.1 0.0
18/04:00am 23.9 20.2 9.5 40 7.9 S 19 32 10 17 1008.1 1007.9 0.0
18/03:30am 24.6 20.8 9.0 37 8.5 S 19 32 10 17 1008.2 1008.0 0.0

Other Formats:

Comma delimited format used in spreadsheet applications
http://www.bom.gov.au/fwo/IDN60801/IDN60801.94693.axf

JavaScript Object Notation format (JSON) in row-major order
http://www.bom.gov.au/fwo/IDN60801/IDN60801.94693.json